sensor_id;sensor_type;location;lat;lon;timestamp;pressure;altitude;pressure_sealevel;temperature;humidity
70338;BME280;57757;53.198;19.646;2023-06-14T00:02:01;100426.23;;;14.73;51.87
70338;BME280;57757;53.198;19.646;2023-06-14T00:04:30;100420.34;;;14.71;52.04
70338;BME280;57757;53.198;19.646;2023-06-14T00:06:58;100418.27;;;14.71;52.14
70338;BME280;57757;53.198;19.646;2023-06-14T00:09:27;100415.92;;;14.72;52.23
70338;BME280;57757;53.198;19.646;2023-06-14T00:11:54;100414.73;;;14.76;52.37
70338;BME280;57757;53.198;19.646;2023-06-14T00:14:22;100413.60;;;14.83;52.53
70338;BME280;57757;53.198;19.646;2023-06-14T00:16:50;100409.48;;;14.90;52.57
70338;BME280;57757;53.198;19.646;2023-06-14T00:19:19;100405.17;;;14.98;52.66
70338;BME280;57757;53.198;19.646;2023-06-14T00:21:48;100401.27;;;15.04;52.49
70338;BME280;57757;53.198;19.646;2023-06-14T00:24:16;100401.23;;;15.05;52.54
70338;BME280;57757;53.198;19.646;2023-06-14T00:26:44;100396.69;;;15.04;52.54
70338;BME280;57757;53.198;19.646;2023-06-14T00:29:11;100388.95;;;15.05;52.57
70338;BME280;57757;53.198;19.646;2023-06-14T00:31:39;100385.30;;;15.05;52.66
70338;BME280;57757;53.198;19.646;2023-06-14T00:34:07;100373.06;;;15.04;52.65
70338;BME280;57757;53.198;19.646;2023-06-14T00:36:35;100371.45;;;15.05;52.46
70338;BME280;57757;53.198;19.646;2023-06-14T00:39:02;100369.50;;;15.06;52.73
70338;BME280;57757;53.198;19.646;2023-06-14T00:41:31;100364.27;;;15.09;52.68
70338;BME280;57757;53.198;19.646;2023-06-14T00:43:58;100358.63;;;15.14;52.89
70338;BME280;57757;53.198;19.646;2023-06-14T00:46:27;100357.92;;;15.19;52.85
70338;BME280;57757;53.198;19.646;2023-06-14T00:48:56;100356.53;;;15.23;52.92
70338;BME280;57757;53.198;19.646;2023-06-14T00:51:26;100359.18;;;15.27;52.98
70338;BME280;57757;53.198;19.646;2023-06-14T00:53:55;100356.34;;;15.28;53.04
70338;BME280;57757;53.198;19.646;2023-06-14T00:56:22;100361.15;;;15.30;52.88
70338;BME280;57757;53.198;19.646;2023-06-14T00:58:50;100359.11;;;15.33;52.94
70338;BME280;57757;53.198;19.646;2023-06-14T01:01:19;100358.48;;;15.36;53.03
70338;BME280;57757;53.198;19.646;2023-06-14T01:03:47;100355.26;;;15.37;52.91
70338;BME280;57757;53.198;19.646;2023-06-14T01:06:33;100350.94;;;15.41;53.03
70338;BME280;57757;53.198;19.646;2023-06-14T01:09:15;100353.17;;;15.46;53.09
70338;BME280;57757;53.198;19.646;2023-06-14T01:12:02;100345.83;;;15.50;53.34
70338;BME280;57757;53.198;19.646;2023-06-14T01:14:34;100343.77;;;15.53;53.23
70338;BME280;57757;53.198;19.646;2023-06-14T01:17:03;100341.63;;;15.55;53.30
70338;BME280;57757;53.198;19.646;2023-06-14T01:19:32;100344.03;;;15.52;53.28
70338;BME280;57757;53.198;19.646;2023-06-14T01:22:02;100343.08;;;15.48;53.34
70338;BME280;57757;53.198;19.646;2023-06-14T01:24:29;100347.02;;;15.46;53.24
70338;BME280;57757;53.198;19.646;2023-06-14T01:27:01;100349.67;;;15.45;53.35
70338;BME280;57757;53.198;19.646;2023-06-14T01:29:30;100353.83;;;15.47;53.26
70338;BME280;57757;53.198;19.646;2023-06-14T01:32:00;100362.03;;;15.48;53.42
70338;BME280;57757;53.198;19.646;2023-06-14T01:34:28;100360.29;;;15.47;53.55
70338;BME280;57757;53.198;19.646;2023-06-14T01:36:57;100361.17;;;15.47;53.68
70338;BME280;57757;53.198;19.646;2023-06-14T01:39:25;100358.40;;;15.46;53.64
70338;BME280;57757;53.198;19.646;2023-06-14T01:41:53;100358.86;;;15.44;53.75
70338;BME280;57757;53.198;19.646;2023-06-14T01:44:23;100356.45;;;15.43;53.72
70338;BME280;57757;53.198;19.646;2023-06-14T01:46:51;100353.84;;;15.42;53.90
70338;BME280;57757;53.198;19.646;2023-06-14T01:49:20;100349.00;;;15.41;53.72
70338;BME280;57757;53.198;19.646;2023-06-14T01:51:47;100348.68;;;15.40;53.76
70338;BME280;57757;53.198;19.646;2023-06-14T01:54:15;100348.17;;;15.40;53.72
70338;BME280;57757;53.198;19.646;2023-06-14T01:56:43;100344.65;;;15.40;53.81
70338;BME280;57757;53.198;19.646;2023-06-14T01:59:10;100339.27;;;15.38;53.94
70338;BME280;57757;53.198;19.646;2023-06-14T02:01:38;100335.29;;;15.37;53.95
70338;BME280;57757;53.198;19.646;2023-06-14T02:04:05;100333.46;;;15.35;53.97
70338;BME280;57757;53.198;19.646;2023-06-14T02:06:33;100331.77;;;15.33;54.14
70338;BME280;57757;53.198;19.646;2023-06-14T02:09:02;100331.54;;;15.30;54.06
70338;BME280;57757;53.198;19.646;2023-06-14T02:11:30;100335.14;;;15.28;54.11
70338;BME280;57757;53.198;19.646;2023-06-14T02:13:58;100334.95;;;15.24;54.07
70338;BME280;57757;53.198;19.646;2023-06-14T02:16:28;100336.58;;;15.23;54.29
70338;BME280;57757;53.198;19.646;2023-06-14T02:18:57;100336.65;;;15.21;54.36
70338;BME280;57757;53.198;19.646;2023-06-14T02:21:25;100337.81;;;15.22;54.54
70338;BME280;57757;53.198;19.646;2023-06-14T02:23:52;100335.16;;;15.23;54.64
70338;BME280;57757;53.198;19.646;2023-06-14T02:26:20;100331.36;;;15.22;54.46
70338;BME280;57757;53.198;19.646;2023-06-14T02:28:48;100331.48;;;15.19;54.62
70338;BME280;57757;53.198;19.646;2023-06-14T02:31:16;100333.64;;;15.18;54.62
70338;BME280;57757;53.198;19.646;2023-06-14T02:33:43;100338.27;;;15.15;54.61
70338;BME280;57757;53.198;19.646;2023-06-14T02:36:11;100343.06;;;15.14;54.55
70338;BME280;57757;53.198;19.646;2023-06-14T02:38:38;100343.23;;;15.15;54.79
70338;BME280;57757;53.198;19.646;2023-06-14T02:41:06;100339.10;;;15.17;54.82
70338;BME280;57757;53.198;19.646;2023-06-14T02:43:34;100338.81;;;15.19;54.86
70338;BME280;57757;53.198;19.646;2023-06-14T02:46:02;100337.38;;;15.20;54.75
70338;BME280;57757;53.198;19.646;2023-06-14T02:48:29;100343.62;;;15.22;55.05
70338;BME280;57757;53.198;19.646;2023-06-14T02:50:57;100346.91;;;15.23;55.16
70338;BME280;57757;53.198;19.646;2023-06-14T02:53:25;100340.98;;;15.22;55.21
70338;BME280;57757;53.198;19.646;2023-06-14T02:55:53;100338.20;;;15.17;54.93
70338;BME280;57757;53.198;19.646;2023-06-14T02:58:23;100333.66;;;15.13;55.09
70338;BME280;57757;53.198;19.646;2023-06-14T03:00:52;100339.59;;;15.14;55.24
70338;BME280;57757;53.198;19.646;2023-06-14T03:03:22;100351.55;;;15.16;55.16
70338;BME280;57757;53.198;19.646;2023-06-14T03:05:52;100360.37;;;15.19;55.29
70338;BME280;57757;53.198;19.646;2023-06-14T03:08:21;100360.20;;;15.23;55.33
70338;BME280;57757;53.198;19.646;2023-06-14T03:10:54;100359.81;;;15.25;55.39
70338;BME280;57757;53.198;19.646;2023-06-14T03:13:24;100356.39;;;15.27;55.41
70338;BME280;57757;53.198;19.646;2023-06-14T03:15:51;100350.61;;;15.26;55.46
70338;BME280;57757;53.198;19.646;2023-06-14T03:18:19;100349.27;;;15.25;55.39
70338;BME280;57757;53.198;19.646;2023-06-14T03:20:54;100346.52;;;15.24;55.44
70338;BME280;57757;53.198;19.646;2023-06-14T03:23:24;100336.17;;;15.24;55.47
70338;BME280;57757;53.198;19.646;2023-06-14T03:25:53;100333.86;;;15.25;55.40
70338;BME280;57757;53.198;19.646;2023-06-14T03:28:20;100331.45;;;15.28;55.36
70338;BME280;57757;53.198;19.646;2023-06-14T03:30:48;100335.11;;;15.33;55.43
70338;BME280;57757;53.198;19.646;2023-06-14T03:33:15;100338.85;;;15.36;55.61
70338;BME280;57757;53.198;19.646;2023-06-14T03:35:43;100337.16;;;15.39;55.61
70338;BME280;57757;53.198;19.646;2023-06-14T03:38:11;100325.77;;;15.39;55.67
70338;BME280;57757;53.198;19.646;2023-06-14T03:40:38;100325.57;;;15.40;55.76
70338;BME280;57757;53.198;19.646;2023-06-14T03:43:06;100320.83;;;15.40;55.73
70338;BME280;57757;53.198;19.646;2023-06-14T03:45:34;100321.77;;;15.42;55.64
70338;BME280;57757;53.198;19.646;2023-06-14T03:48:04;100320.77;;;15.45;55.62
70338;BME280;57757;53.198;19.646;2023-06-14T03:50:34;100320.85;;;15.48;55.81
70338;BME280;57757;53.198;19.646;2023-06-14T03:53:02;100317.73;;;15.52;55.71
70338;BME280;57757;53.198;19.646;2023-06-14T03:55:30;100321.58;;;15.56;55.73
70338;BME280;57757;53.198;19.646;2023-06-14T03:58:01;100321.99;;;15.59;55.65
70338;BME280;57757;53.198;19.646;2023-06-14T04:00:29;100326.23;;;15.58;55.67
70338;BME280;57757;53.198;19.646;2023-06-14T04:02:57;100330.15;;;15.60;55.85
70338;BME280;57757;53.198;19.646;2023-06-14T04:05:25;100329.55;;;15.63;55.90
70338;BME280;57757;53.198;19.646;2023-06-14T04:07:56;100330.89;;;15.68;55.90
70338;BME280;57757;53.198;19.646;2023-06-14T04:10:24;100328.94;;;15.72;55.88
70338;BME280;57757;53.198;19.646;2023-06-14T04:12:52;100332.02;;;15.78;55.93
70338;BME280;57757;53.198;19.646;2023-06-14T04:15:21;100331.04;;;15.85;55.86
70338;BME280;57757;53.198;19.646;2023-06-14T04:17:49;100328.54;;;15.90;55.82
70338;BME280;57757;53.198;19.646;2023-06-14T04:20:18;100333.70;;;15.93;55.75
70338;BME280;57757;53.198;19.646;2023-06-14T04:22:47;100338.26;;;15.97;55.87
70338;BME280;57757;53.198;19.646;2023-06-14T04:25:16;100331.14;;;15.99;56.06
70338;BME280;57757;53.198;19.646;2023-06-14T04:27:50;100333.73;;;16.04;55.79
70338;BME280;57757;53.198;19.646;2023-06-14T04:30:19;100338.76;;;16.06;55.85
70338;BME280;57757;53.198;19.646;2023-06-14T04:32:49;100333.90;;;16.08;55.95
70338;BME280;57757;53.198;19.646;2023-06-14T04:35:17;100333.98;;;16.10;55.76
70338;BME280;57757;53.198;19.646;2023-06-14T04:37:46;100328.55;;;16.14;55.80
70338;BME280;57757;53.198;19.646;2023-06-14T04:40:15;100322.39;;;16.18;55.69
70338;BME280;57757;53.198;19.646;2023-06-14T04:42:42;100318.95;;;16.21;55.57
70338;BME280;57757;53.198;19.646;2023-06-14T04:45:12;100317.88;;;16.21;55.68
70338;BME280;57757;53.198;19.646;2023-06-14T04:47:41;100319.51;;;16.24;55.81
70338;BME280;57757;53.198;19.646;2023-06-14T04:50:10;100320.98;;;16.26;55.68
70338;BME280;57757;53.198;19.646;2023-06-14T04:52:38;100319.70;;;16.28;55.74
70338;BME280;57757;53.198;19.646;2023-06-14T04:55:06;100320.98;;;16.30;55.82
70338;BME280;57757;53.198;19.646;2023-06-14T04:57:34;100319.52;;;16.32;55.98
70338;BME280;57757;53.198;19.646;2023-06-14T05:00:02;100323.63;;;16.34;55.74
70338;BME280;57757;53.198;19.646;2023-06-14T05:02:32;100330.86;;;16.37;55.95
70338;BME280;57757;53.198;19.646;2023-06-14T05:05:00;100327.38;;;16.40;55.80
70338;BME280;57757;53.198;19.646;2023-06-14T05:07:29;100324.13;;;16.42;55.77
70338;BME280;57757;53.198;19.646;2023-06-14T05:09:57;100318.83;;;16.47;55.61
70338;BME280;57757;53.198;19.646;2023-06-14T05:12:25;100318.13;;;16.50;55.66
70338;BME280;57757;53.198;19.646;2023-06-14T05:14:53;100317.09;;;16.50;55.59
70338;BME280;57757;53.198;19.646;2023-06-14T05:17:20;100321.58;;;16.56;55.77
70338;BME280;57757;53.198;19.646;2023-06-14T05:19:48;100317.98;;;16.65;55.74
70338;BME280;57757;53.198;19.646;2023-06-14T05:22:16;100312.00;;;16.74;55.76
70338;BME280;57757;53.198;19.646;2023-06-14T05:24:43;100308.40;;;16.79;55.70
70338;BME280;57757;53.198;19.646;2023-06-14T05:27:11;100309.59;;;16.84;55.61
70338;BME280;57757;53.198;19.646;2023-06-14T05:29:40;100307.64;;;16.88;55.37
70338;BME280;57757;53.198;19.646;2023-06-14T05:32:08;100308.66;;;16.92;55.50
70338;BME280;57757;53.198;19.646;2023-06-14T05:34:35;100310.27;;;16.95;55.34
70338;BME280;57757;53.198;19.646;2023-06-14T05:37:03;100305.20;;;17.02;55.54
70338;BME280;57757;53.198;19.646;2023-06-14T05:39:32;100304.49;;;17.09;55.27
70338;BME280;57757;53.198;19.646;2023-06-14T05:42:00;100306.57;;;17.17;55.16
70338;BME280;57757;53.198;19.646;2023-06-14T05:44:28;100308.52;;;17.28;55.21
70338;BME280;57757;53.198;19.646;2023-06-14T05:46:56;100298.48;;;17.39;55.14
70338;BME280;57757;53.198;19.646;2023-06-14T05:49:28;100300.98;;;17.48;55.17
70338;BME280;57757;53.198;19.646;2023-06-14T05:51:56;100302.70;;;17.60;55.08
70338;BME280;57757;53.198;19.646;2023-06-14T05:54:24;100306.77;;;17.74;54.99
70338;BME280;57757;53.198;19.646;2023-06-14T05:56:52;100311.55;;;17.87;55.05
70338;BME280;57757;53.198;19.646;2023-06-14T05:59:20;100312.19;;;17.98;54.82
70338;BME280;57757;53.198;19.646;2023-06-14T06:01:48;100308.86;;;18.04;54.56
70338;BME280;57757;53.198;19.646;2023-06-14T06:04:16;100316.35;;;18.09;54.55
70338;BME280;57757;53.198;19.646;2023-06-14T06:06:44;100313.84;;;18.17;54.36
70338;BME280;57757;53.198;19.646;2023-06-14T06:09:13;100311.34;;;18.21;54.21
70338;BME280;57757;53.198;19.646;2023-06-14T06:11:42;100311.92;;;18.23;54.07
70338;BME280;57757;53.198;19.646;2023-06-14T06:14:20;100314.13;;;18.28;53.92
70338;BME280;57757;53.198;19.646;2023-06-14T06:16:48;100319.02;;;18.32;53.96
70338;BME280;57757;53.198;19.646;2023-06-14T06:19:15;100321.01;;;18.38;54.13
70338;BME280;57757;53.198;19.646;2023-06-14T06:21:43;100324.31;;;18.45;54.02
70338;BME280;57757;53.198;19.646;2023-06-14T06:24:11;100327.96;;;18.49;53.81
70338;BME280;57757;53.198;19.646;2023-06-14T06:26:39;100331.89;;;18.58;53.96
70338;BME280;57757;53.198;19.646;2023-06-14T06:29:11;100334.64;;;18.69;53.88
70338;BME280;57757;53.198;19.646;2023-06-14T06:31:43;100337.91;;;18.80;53.86
70338;BME280;57757;53.198;19.646;2023-06-14T06:34:15;100337.65;;;18.88;53.73
70338;BME280;57757;53.198;19.646;2023-06-14T06:36:43;100337.79;;;18.95;53.68
70338;BME280;57757;53.198;19.646;2023-06-14T06:39:11;100337.70;;;19.06;53.72
70338;BME280;57757;53.198;19.646;2023-06-14T06:41:39;100339.88;;;19.17;53.73
70338;BME280;57757;53.198;19.646;2023-06-14T06:44:07;100338.35;;;19.29;53.66
70338;BME280;57757;53.198;19.646;2023-06-14T06:46:38;100338.69;;;19.41;53.65
70338;BME280;57757;53.198;19.646;2023-06-14T06:49:11;100342.13;;;19.59;53.53
70338;BME280;57757;53.198;19.646;2023-06-14T06:51:42;100347.52;;;19.72;53.45
70338;BME280;57757;53.198;19.646;2023-06-14T06:54:11;100347.15;;;19.75;53.07
70338;BME280;57757;53.198;19.646;2023-06-14T06:56:39;100341.37;;;19.77;53.08
70338;BME280;57757;53.198;19.646;2023-06-14T06:59:08;100341.09;;;19.88;53.05
70338;BME280;57757;53.198;19.646;2023-06-14T07:01:36;100346.52;;;19.98;52.83
70338;BME280;57757;53.198;19.646;2023-06-14T07:04:05;100349.00;;;20.09;53.07
70338;BME280;57757;53.198;19.646;2023-06-14T07:06:37;100352.52;;;20.24;52.98
70338;BME280;57757;53.198;19.646;2023-06-14T07:09:06;100352.52;;;20.38;52.76
70338;BME280;57757;53.198;19.646;2023-06-14T07:11:40;100357.83;;;20.50;52.55
70338;BME280;57757;53.198;19.646;2023-06-14T07:14:10;100357.85;;;20.61;52.72
70338;BME280;57757;53.198;19.646;2023-06-14T07:16:40;100357.52;;;20.77;52.33
70338;BME280;57757;53.198;19.646;2023-06-14T07:19:10;100360.45;;;20.84;52.27
70338;BME280;57757;53.198;19.646;2023-06-14T07:21:38;100364.60;;;20.91;51.89
70338;BME280;57757;53.198;19.646;2023-06-14T07:24:06;100365.34;;;20.93;51.83
70338;BME280;57757;53.198;19.646;2023-06-14T07:26:35;100365.59;;;21.01;51.70
70338;BME280;57757;53.198;19.646;2023-06-14T07:29:03;100366.13;;;21.09;51.84
70338;BME280;57757;53.198;19.646;2023-06-14T07:31:31;100365.16;;;21.21;51.82
70338;BME280;57757;53.198;19.646;2023-06-14T07:33:59;100367.58;;;21.38;51.79
70338;BME280;57757;53.198;19.646;2023-06-14T07:36:27;100370.59;;;21.57;51.63
70338;BME280;57757;53.198;19.646;2023-06-14T07:38:57;100368.70;;;21.75;51.44
70338;BME280;57757;53.198;19.646;2023-06-14T07:41:28;100369.05;;;21.93;51.44
70338;BME280;57757;53.198;19.646;2023-06-14T07:43:56;100370.95;;;22.13;51.16
70338;BME280;57757;53.198;19.646;2023-06-14T07:46:23;100371.39;;;22.24;50.87
70338;BME280;57757;53.198;19.646;2023-06-14T07:48:51;100375.92;;;22.28;50.69
70338;BME280;57757;53.198;19.646;2023-06-14T07:51:24;100381.18;;;22.26;50.68
70338;BME280;57757;53.198;19.646;2023-06-14T07:53:52;100383.02;;;22.30;50.65
70338;BME280;57757;53.198;19.646;2023-06-14T07:56:19;100378.83;;;22.40;50.66
70338;BME280;57757;53.198;19.646;2023-06-14T07:58:48;100380.75;;;22.55;50.56
70338;BME280;57757;53.198;19.646;2023-06-14T08:01:16;100385.75;;;22.72;50.57
70338;BME280;57757;53.198;19.646;2023-06-14T08:03:45;100384.95;;;22.86;50.27
70338;BME280;57757;53.198;19.646;2023-06-14T08:06:17;100384.15;;;22.95;50.04
70338;BME280;57757;53.198;19.646;2023-06-14T08:08:46;100384.14;;;22.95;49.75
70338;BME280;57757;53.198;19.646;2023-06-14T08:11:14;100382.20;;;22.95;49.69
70338;BME280;57757;53.198;19.646;2023-06-14T08:13:42;100381.83;;;23.05;49.66
70338;BME280;57757;53.198;19.646;2023-06-14T08:16:10;100379.98;;;23.11;49.54
70338;BME280;57757;53.198;19.646;2023-06-14T08:18:38;100382.09;;;23.13;49.27
70338;BME280;57757;53.198;19.646;2023-06-14T08:21:06;100384.20;;;23.11;49.11
70338;BME280;57757;53.198;19.646;2023-06-14T08:23:34;100384.09;;;23.10;49.02
70338;BME280;57757;53.198;19.646;2023-06-14T08:26:03;100383.09;;;23.09;48.81
70338;BME280;57757;53.198;19.646;2023-06-14T08:28:31;100382.29;;;23.06;48.81
70338;BME280;57757;53.198;19.646;2023-06-14T08:30:59;100382.07;;;23.07;48.87
70338;BME280;57757;53.198;19.646;2023-06-14T08:33:28;100381.16;;;23.09;48.61
70338;BME280;57757;53.198;19.646;2023-06-14T08:36:17;100384.36;;;23.09;48.84
70338;BME280;57757;53.198;19.646;2023-06-14T08:38:58;100382.64;;;23.20;48.82
70338;BME280;57757;53.198;19.646;2023-06-14T08:41:28;100378.05;;;23.27;48.39
70338;BME280;57757;53.198;19.646;2023-06-14T08:43:59;100379.84;;;23.25;48.21
70338;BME280;57757;53.198;19.646;2023-06-14T08:46:50;100375.52;;;23.23;47.93
70338;BME280;57757;53.198;19.646;2023-06-14T08:49:25;100373.52;;;23.17;47.99
70338;BME280;57757;53.198;19.646;2023-06-14T08:52:01;100375.41;;;23.20;47.92
70338;BME280;57757;53.198;19.646;2023-06-14T08:54:30;100372.92;;;23.25;47.95
70338;BME280;57757;53.198;19.646;2023-06-14T08:57:02;100372.61;;;23.29;47.76
70338;BME280;57757;53.198;19.646;2023-06-14T08:59:36;100376.05;;;23.41;47.92
70338;BME280;57757;53.198;19.646;2023-06-14T09:02:07;100377.17;;;23.52;47.75
70338;BME280;57757;53.198;19.646;2023-06-14T09:04:46;100378.67;;;23.60;47.38
70338;BME280;57757;53.198;19.646;2023-06-14T09:07:16;100380.07;;;23.56;47.20
70338;BME280;57757;53.198;19.646;2023-06-14T09:09:45;100378.01;;;23.55;47.33
70338;BME280;57757;53.198;19.646;2023-06-14T09:12:33;100378.32;;;23.58;47.03
70338;BME280;57757;53.198;19.646;2023-06-14T09:15:07;100379.84;;;23.61;47.07
70338;BME280;57757;53.198;19.646;2023-06-14T09:17:38;100378.41;;;23.64;46.90
70338;BME280;57757;53.198;19.646;2023-06-14T09:20:10;100379.67;;;23.61;46.45
70338;BME280;57757;53.198;19.646;2023-06-14T09:22:46;100376.51;;;23.49;45.89
70338;BME280;57757;53.198;19.646;2023-06-14T09:25:45;100377.20;;;23.37;45.88
70338;BME280;57757;53.198;19.646;2023-06-14T09:28:27;100379.23;;;23.31;45.90
70338;BME280;57757;53.198;19.646;2023-06-14T09:31:03;100380.43;;;23.31;45.93
70338;BME280;57757;53.198;19.646;2023-06-14T09:33:36;100385.05;;;23.36;45.85
70338;BME280;57757;53.198;19.646;2023-06-14T09:36:13;100384.59;;;23.35;45.69
70338;BME280;57757;53.198;19.646;2023-06-14T09:39:00;100388.17;;;23.34;45.49
70338;BME280;57757;53.198;19.646;2023-06-14T09:41:49;100386.80;;;23.34;45.47
70338;BME280;57757;53.198;19.646;2023-06-14T09:44:21;100388.30;;;23.13;44.84
70338;BME280;57757;53.198;19.646;2023-06-14T09:46:57;100387.34;;;22.85;44.90
70338;BME280;57757;53.198;19.646;2023-06-14T09:49:29;100391.27;;;22.65;45.03
70338;BME280;57757;53.198;19.646;2023-06-14T09:52:03;100399.58;;;22.57;45.31
70338;BME280;57757;53.198;19.646;2023-06-14T09:54:40;100397.73;;;22.53;45.37
70338;BME280;57757;53.198;19.646;2023-06-14T09:57:10;100397.14;;;22.44;45.32
70338;BME280;57757;53.198;19.646;2023-06-14T09:59:43;100402.08;;;22.34;45.27
70338;BME280;57757;53.198;19.646;2023-06-14T10:04:46;100413.21;;;22.24;45.49
70338;BME280;57757;53.198;19.646;2023-06-14T10:07:19;100414.21;;;22.07;45.34
70338;BME280;57757;53.198;19.646;2023-06-14T10:09:47;100419.43;;;21.81;45.26
70338;BME280;57757;53.198;19.646;2023-06-14T10:12:17;100416.46;;;21.54;45.43
70338;BME280;57757;53.198;19.646;2023-06-14T10:14:49;100410.98;;;21.07;44.99
70338;BME280;57757;53.198;19.646;2023-06-14T10:17:27;100405.43;;;20.40;45.20
70338;BME280;57757;53.198;19.646;2023-06-14T10:20:10;100406.23;;;19.76;45.71
70338;BME280;57757;53.198;19.646;2023-06-14T10:22:47;100413.33;;;19.28;46.50
70338;BME280;57757;53.198;19.646;2023-06-14T10:25:33;100432.27;;;19.20;47.36
70338;BME280;57757;53.198;19.646;2023-06-14T10:28:17;100431.31;;;19.34;47.85
70338;BME280;57757;53.198;19.646;2023-06-14T10:31:05;100433.16;;;19.36;47.65
70338;BME280;57757;53.198;19.646;2023-06-14T10:33:40;100426.00;;;19.35;47.84
70338;BME280;57757;53.198;19.646;2023-06-14T10:39:10;100428.31;;;18.83;47.75
70338;BME280;57757;53.198;19.646;2023-06-14T10:41:53;100434.40;;;18.54;48.12
70338;BME280;57757;53.198;19.646;2023-06-14T10:46:52;100417.38;;;18.33;48.65
70338;BME280;57757;53.198;19.646;2023-06-14T10:49:45;100420.50;;;18.27;48.71
70338;BME280;57757;53.198;19.646;2023-06-14T10:52:27;100416.69;;;18.22;48.84
70338;BME280;57757;53.198;19.646;2023-06-14T10:57:47;100417.29;;;18.24;49.27
70338;BME280;57757;53.198;19.646;2023-06-14T11:00:25;100419.67;;;18.26;49.56
70338;BME280;57757;53.198;19.646;2023-06-14T11:05:49;100421.45;;;18.36;49.85
70338;BME280;57757;53.198;19.646;2023-06-14T11:11:10;100430.65;;;18.59;50.82
70338;BME280;57757;53.198;19.646;2023-06-14T11:13:44;100432.42;;;18.72;50.76
70338;BME280;57757;53.198;19.646;2023-06-14T11:16:14;100434.47;;;18.83;50.96
70338;BME280;57757;53.198;19.646;2023-06-14T11:18:44;100437.11;;;18.96;50.97
70338;BME280;57757;53.198;19.646;2023-06-14T11:21:18;100431.79;;;19.07;51.00
70338;BME280;57757;53.198;19.646;2023-06-14T11:23:52;100432.77;;;19.17;50.95
70338;BME280;57757;53.198;19.646;2023-06-14T11:26:28;100426.55;;;19.25;51.06
70338;BME280;57757;53.198;19.646;2023-06-14T11:28:58;100425.80;;;19.31;51.24
70338;BME280;57757;53.198;19.646;2023-06-14T11:31:28;100418.77;;;19.44;51.09
70338;BME280;57757;53.198;19.646;2023-06-14T11:33:59;100415.41;;;19.41;50.71
70338;BME280;57757;53.198;19.646;2023-06-14T11:36:29;100406.20;;;19.36;50.76
70338;BME280;57757;53.198;19.646;2023-06-14T11:39:03;100403.04;;;19.26;50.68
70338;BME280;57757;53.198;19.646;2023-06-14T11:41:37;100395.72;;;19.21;50.84
70338;BME280;57757;53.198;19.646;2023-06-14T11:44:06;100385.48;;;19.22;50.68
70338;BME280;57757;53.198;19.646;2023-06-14T11:46:35;100375.09;;;19.12;50.40
70338;BME280;57757;53.198;19.646;2023-06-14T11:49:04;100369.72;;;18.94;50.26
70338;BME280;57757;53.198;19.646;2023-06-14T11:51:35;100370.65;;;18.90;50.84
70338;BME280;57757;53.198;19.646;2023-06-14T11:54:05;100369.79;;;19.03;50.77
70338;BME280;57757;53.198;19.646;2023-06-14T11:56:34;100367.20;;;19.21;50.88
70338;BME280;57757;53.198;19.646;2023-06-14T11:59:03;100363.33;;;19.45;51.25
70338;BME280;57757;53.198;19.646;2023-06-14T12:01:31;100356.39;;;19.71;50.92
70338;BME280;57757;53.198;19.646;2023-06-14T12:04:00;100354.59;;;19.98;50.88
70338;BME280;57757;53.198;19.646;2023-06-14T12:06:30;100354.05;;;20.37;50.85
70338;BME280;57757;53.198;19.646;2023-06-14T12:09:05;100353.67;;;20.88;50.87
70338;BME280;57757;53.198;19.646;2023-06-14T12:11:35;100354.52;;;21.43;50.81
70338;BME280;57757;53.198;19.646;2023-06-14T12:14:04;100348.26;;;22.00;50.40
70338;BME280;57757;53.198;19.646;2023-06-14T12:16:34;100350.25;;;22.51;49.79
70338;BME280;57757;53.198;19.646;2023-06-14T12:19:17;100347.05;;;22.88;49.03
70338;BME280;57757;53.198;19.646;2023-06-14T12:21:48;100344.77;;;23.19;48.93
70338;BME280;57757;53.198;19.646;2023-06-14T12:24:17;100342.86;;;23.45;48.74
70338;BME280;57757;53.198;19.646;2023-06-14T12:26:48;100340.52;;;23.69;48.23
70338;BME280;57757;53.198;19.646;2023-06-14T12:29:19;100337.45;;;23.91;47.97
70338;BME280;57757;53.198;19.646;2023-06-14T12:31:47;100337.20;;;24.15;47.71
70338;BME280;57757;53.198;19.646;2023-06-14T12:34:15;100335.60;;;24.36;47.60
70338;BME280;57757;53.198;19.646;2023-06-14T12:36:43;100336.92;;;24.53;47.48
70338;BME280;57757;53.198;19.646;2023-06-14T12:39:13;100341.20;;;24.70;47.25
70338;BME280;57757;53.198;19.646;2023-06-14T12:41:42;100339.33;;;24.96;47.40
70338;BME280;57757;53.198;19.646;2023-06-14T12:44:13;100335.77;;;25.29;47.20
70338;BME280;57757;53.198;19.646;2023-06-14T12:46:44;100333.25;;;25.57;46.93
70338;BME280;57757;53.198;19.646;2023-06-14T12:49:31;100331.80;;;25.93;46.69
70338;BME280;57757;53.198;19.646;2023-06-14T12:52:07;100338.41;;;26.24;46.24
70338;BME280;57757;53.198;19.646;2023-06-14T12:54:35;100339.16;;;26.28;45.60
70338;BME280;57757;53.198;19.646;2023-06-14T12:57:08;100341.23;;;26.16;45.23
70338;BME280;57757;53.198;19.646;2023-06-14T12:59:35;100338.77;;;25.91;44.99
70338;BME280;57757;53.198;19.646;2023-06-14T13:02:19;100338.59;;;25.63;44.79
70338;BME280;57757;53.198;19.646;2023-06-14T13:04:53;100342.70;;;25.33;44.71
70338;BME280;57757;53.198;19.646;2023-06-14T13:07:21;100346.74;;;25.03;44.67
70338;BME280;57757;53.198;19.646;2023-06-14T13:09:49;100348.98;;;24.75;44.74
70338;BME280;57757;53.198;19.646;2023-06-14T13:12:17;100345.64;;;24.46;44.73
70338;BME280;57757;53.198;19.646;2023-06-14T13:14:47;100346.67;;;24.19;44.70